Time;durP1;ratioP1;P1;durP2;ratioP2;P2;SDS_P1;SDS_P2;PMS_P1;PMS_P2;Temp;Humidity;BMP_temperature;BMP_pressure;BME280_temperature;BME280_humidity;BME280_pressure;Samples;Min_cycle;Max_cycle;Signal;HPM_P1;HPM_P2
2021/08/07 00:02:05;;;;;;;12.82;6.78;;;;;;;22.76;45.88;99332.47;5088277;28;20036;-22
2021/08/07 00:04:30;;;;;;;11.73;5.38;;;;;;;22.66;47.42;99320.00;5088666;28;20020;-22
2021/08/07 00:06:55;;;;;;;8.65;4.30;;;;;;;23.20;46.57;99350.44;5088372;28;20093;-22
2021/08/07 00:09:21;;;;;;;6.85;3.40;;;;;;;23.40;45.89;99350.94;5088817;28;20031;-22
2021/08/07 00:11:46;;;;;;;5.30;2.90;;;;;;;23.05;46.10;99340.84;5088496;28;20032;-22
2021/08/07 00:14:12;;;;;;;7.03;3.20;;;;;;;22.98;46.56;99351.38;5088218;28;20403;-22
2021/08/07 00:16:38;;;;;;;6.53;3.22;;;;;;;23.20;45.19;99350.44;5088243;28;20028;-22
2021/08/07 00:19:03;;;;;;;5.82;2.75;;;;;;;22.71;44.93;99349.75;5087566;28;20024;-21
2021/08/07 00:21:28;;;;;;;6.65;3.30;;;;;;;22.57;47.01;99354.50;5088247;28;20604;-21
2021/08/07 00:23:54;;;;;;;6.95;3.53;;;;;;;22.63;46.17;99353.25;5088275;28;20471;-22
2021/08/07 00:26:19;;;;;;;6.85;2.90;;;;;;;21.74;46.96;99349.66;5088308;28;20035;-22
2021/08/07 00:28:45;;;;;;;4.05;2.25;;;;;;;21.56;48.50;99354.19;5088429;28;20020;-22
2021/08/07 00:31:10;;;;;;;2.97;1.90;;;;;;;21.65;48.58;99349.63;5087996;28;20039;-22
2021/08/07 00:33:36;;;;;;;3.95;2.03;;;;;;;21.38;49.46;99340.47;5088160;28;20498;-22
2021/08/07 00:36:01;;;;;;;3.22;1.90;;;;;;;22.00;47.54;99356.03;5087849;28;20055;-22
2021/08/07 00:38:27;;;;;;;4.78;2.22;;;;;;;22.11;48.05;99366.63;5087869;28;20024;-22
2021/08/07 00:40:52;;;;;;;4.05;2.10;;;;;;;21.90;46.97;99364.44;5087921;28;20043;-22
2021/08/07 00:43:17;;;;;;;1.98;1.67;;;;;;;21.80;47.63;99362.00;5087914;28;20411;-21
2021/08/07 00:45:43;;;;;;;3.17;1.92;;;;;;;21.05;48.76;99364.31;5088065;28;20035;-22
2021/08/07 00:48:08;;;;;;;3.00;1.73;;;;;;;20.32;50.23;99352.53;5087881;28;20427;-21
2021/08/07 00:50:34;;;;;;;2.65;1.90;;;;;;;20.26;50.49;99349.91;5087813;28;20032;-21
2021/08/07 00:53:02;;;;;;;3.13;1.92;;;;;;;20.41;49.88;99367.78;5087967;28;20043;-22
2021/08/07 00:55:27;;;;;;;3.53;2.10;;;;;;;20.04;51.32;99368.75;5069878;28;20055;-21
2021/08/07 00:57:52;;;;;;;2.65;1.85;;;;;;;19.84;51.77;99348.28;5069400;28;20082;-21
2021/08/07 01:00:18;;;;;;;5.60;2.60;;;;;;;19.93;51.45;99365.44;5087378;28;20039;-21
2021/08/07 01:02:47;;;;;;;7.50;3.40;;;;;;;19.85;51.19;99345.25;5087814;28;20542;-21
2021/08/07 01:05:21;;;;;;;6.88;2.97;;;;;;;19.95;51.56;99360.53;5052950;28;20197;-22
2021/08/07 01:07:46;;;;;;;7.60;3.35;;;;;;;20.76;49.86;99367.38;5087926;28;20111;-22
2021/08/07 01:10:28;;;;;;;4.32;2.42;;;;;;;20.48;50.49;99354.63;5087300;28;20122;-22
2021/08/07 01:13:17;;;;;;;5.90;2.33;;;;;;;20.59;49.42;99362.56;5054334;28;20450;-21
2021/08/07 01:15:46;;;;;;;5.95;2.47;;;;;;;20.80;49.99;99365.66;5087674;28;20404;-22
2021/08/07 01:18:14;;;;;;;3.15;1.85;;;;;;;20.90;48.63;99361.94;5069591;28;20106;-21
2021/08/07 01:20:42;;;;;;;4.28;2.25;;;;;;;20.46;49.52;99370.38;5087794;28;20043;-21
2021/08/07 01:23:36;;;;;;;2.60;1.55;;;;;;;20.20;50.29;99371.97;5069447;28;20044;-22
2021/08/07 01:26:18;;;;;;;3.00;1.95;;;;;;;20.00;50.75;99360.44;5087075;28;20043;-22
2021/08/07 01:28:44;;;;;;;3.35;1.98;;;;;;;20.09;50.21;99367.88;5071382;28;20038;-22
2021/08/07 01:31:11;;;;;;;3.30;1.85;;;;;;;19.93;50.30;99354.59;5071936;28;20032;-22
2021/08/07 01:33:36;;;;;;;4.32;1.90;;;;;;;20.16;50.36;99360.16;5091357;28;20040;-21
2021/08/07 01:36:03;;;;;;;5.22;2.17;;;;;;;20.22;49.40;99353.53;5073110;28;20376;-22
2021/08/07 01:38:29;;;;;;;2.97;1.60;;;;;;;20.24;49.29;99349.41;5091182;28;20393;-22
2021/08/07 01:40:55;;;;;;;3.05;1.70;;;;;;;20.11;49.51;99346.72;5091246;28;20028;-21
2021/08/07 01:43:20;;;;;;;3.58;2.28;;;;;;;20.28;49.38;99369.38;5091336;28;20039;-22
2021/08/07 01:45:46;;;;;;;3.30;1.67;;;;;;;20.44;48.71;99361.75;5091634;28;20065;-22
2021/08/07 01:48:31;;;;;;;4.63;1.80;;;;;;;21.20;48.06;99363.16;5091036;28;20724;-22
2021/08/07 01:51:17;;;;;;;3.67;1.77;;;;;;;20.99;47.05;99371.75;5073205;28;20491;-22
2021/08/07 01:53:43;;;;;;;3.67;1.70;;;;;;;20.91;47.35;99367.03;5072931;28;20465;-22
2021/08/07 01:56:11;;;;;;;2.88;1.80;;;;;;;20.92;47.30;99343.44;5072715;28;20032;-22
2021/08/07 01:58:51;;;;;;;3.10;1.50;;;;;;;21.05;47.89;99364.31;5090966;28;20131;-22
2021/08/07 02:01:17;;;;;;;5.60;2.35;;;;;;;20.85;47.59;99357.44;5074360;28;20031;-23
2021/08/07 02:03:42;;;;;;;3.83;1.80;;;;;;;20.46;49.09;99364.16;5073200;28;20679;-21
2021/08/07 02:06:08;;;;;;;4.32;1.90;;;;;;;20.24;48.49;99364.88;5056334;28;20403;-22
2021/08/07 02:08:35;;;;;;;3.65;1.95;;;;;;;20.19;49.10;99362.25;5072705;28;20040;-21
2021/08/07 02:11:00;;;;;;;2.97;1.73;;;;;;;20.46;48.70;99359.53;5090709;28;20036;-21
2021/08/07 02:13:26;;;;;;;4.28;1.92;;;;;;;20.14;48.77;99349.59;5072802;28;20480;-22
2021/08/07 02:15:51;;;;;;;3.65;2.00;;;;;;;19.89;49.24;99367.13;5073123;28;20137;-21
2021/08/07 02:18:21;;;;;;;3.30;1.90;;;;;;;20.09;48.51;99365.16;5090370;28;20106;-22
2021/08/07 02:20:50;;;;;;;3.42;1.70;;;;;;;20.11;48.66;99357.56;5072899;28;20021;-22
2021/08/07 02:23:16;;;;;;;4.55;1.77;;;;;;;20.16;48.50;99365.56;5090512;28;20078;-22
2021/08/07 02:25:43;;;;;;;4.78;2.20;;;;;;;20.15;48.39;99361.25;5090581;28;20400;-22
2021/08/07 02:28:09;;;;;;;3.95;1.95;;;;;;;19.92;49.06;99354.91;5072178;28;20403;-22
2021/08/07 02:30:35;;;;;;;4.63;2.03;;;;;;;20.09;48.36;99357.03;5090812;28;20028;-22
2021/08/07 02:33:00;;;;;;;4.25;1.85;;;;;;;20.42;47.60;99355.84;5056264;28;20024;-22
2021/08/07 02:35:26;;;;;;;2.88;1.58;;;;;;;20.35;48.44;99379.00;5072267;28;20273;-22
2021/08/07 02:37:51;;;;;;;4.07;1.80;;;;;;;20.10;48.46;99367.56;5072069;28;20043;-22
2021/08/07 02:40:17;;;;;;;6.82;1.63;;;;;;;20.11;48.33;99374.59;5071731;28;20032;-22
2021/08/07 02:42:43;;;;;;;3.38;1.75;;;;;;;20.21;47.96;99357.34;5071138;28;20105;-22
2021/08/07 02:45:09;;;;;;;3.60;1.85;;;;;;;20.16;48.10;99354.72;5072107;28;20107;-21
2021/08/07 02:47:34;;;;;;;5.32;1.80;;;;;;;20.18;48.30;99368.78;5090110;28;20070;-22
2021/08/07 02:50:01;;;;;;;4.07;1.90;;;;;;;19.98;48.87;99370.75;5071881;28;20032;-22
2021/08/07 02:52:26;;;;;;;3.95;1.92;;;;;;;20.03;48.57;99367.94;5071839;28;20081;-22
2021/08/07 02:54:52;;;;;;;4.00;1.90;;;;;;;20.15;48.53;99374.78;5055076;28;20449;-22
2021/08/07 02:57:17;;;;;;;4.47;2.00;;;;;;;19.96;48.98;99372.97;5051432;28;20051;-21
2021/08/07 02:59:43;;;;;;;4.68;2.20;;;;;;;20.02;48.86;99358.25;5069505;28;20033;-21
2021/08/07 03:02:08;;;;;;;3.28;1.70;;;;;;;20.14;48.73;99384.00;5051354;28;20484;-21
2021/08/07 03:04:34;;;;;;;5.55;2.03;;;;;;;20.02;49.15;99381.78;5069547;28;20488;-21
2021/08/07 03:06:59;;;;;;;4.30;1.85;;;;;;;19.82;49.35;99366.72;5069061;28;20041;-22
2021/08/07 03:09:25;;;;;;;3.08;1.77;;;;;;;19.87;49.20;99388.25;5069650;28;20032;-22
2021/08/07 03:11:50;;;;;;;4.03;1.75;;;;;;;19.78;49.77;99371.13;5069664;28;20043;-22
2021/08/07 03:14:16;;;;;;;4.72;2.60;;;;;;;19.75;49.55;99367.09;5068991;28;20067;-22
2021/08/07 03:16:41;;;;;;;5.20;1.88;;;;;;;19.80;49.62;99380.53;5069113;28;20400;-21
2021/08/07 03:19:07;;;;;;;4.43;1.95;;;;;;;19.82;49.88;99393.78;5069198;28;20063;-27
2021/08/07 03:21:32;;;;;;;3.70;2.03;;;;;;;19.72;50.10;99397.44;5069210;28;20476;-21
2021/08/07 03:23:58;;;;;;;8.65;2.50;;;;;;;19.79;49.99;99395.16;5069071;28;20096;-22
2021/08/07 03:26:23;;;;;;;4.95;2.17;;;;;;;19.91;49.38;99402.81;5068973;28;20068;-22
2021/08/07 03:28:49;;;;;;;5.35;2.33;;;;;;;19.84;49.67;99397.00;5069021;28;20377;-22
2021/08/07 03:31:15;;;;;;;5.18;2.80;;;;;;;20.19;49.13;99419.13;5068578;28;20033;-22
2021/08/07 03:33:40;;;;;;;10.45;5.75;;;;;;;20.29;49.26;99408.09;5068922;28;20032;-22
2021/08/07 03:36:05;;;;;;;13.00;7.10;;;;;;;20.47;49.05;99414.50;5068524;28;20029;-21
2021/08/07 03:38:31;;;;;;;6.50;2.72;;;;;;;20.46;49.45;99421.84;5068618;28;20025;-22
2021/08/07 03:40:56;;;;;;;4.50;2.10;;;;;;;20.41;49.27;99421.94;5068945;28;20381;-22
2021/08/07 03:43:22;;;;;;;3.10;1.65;;;;;;;20.56;48.83;99422.75;5069057;28;20035;-22
2021/08/07 03:45:48;;;;;;;9.50;4.38;;;;;;;20.54;49.43;99430.38;5069002;28;20839;-22
2021/08/07 03:48:13;;;;;;;9.43;4.45;;;;;;;20.66;49.08;99423.38;5068353;28;20086;-22
2021/08/07 03:50:38;;;;;;;7.07;4.70;;;;;;;20.84;48.94;99437.94;5068753;28;20040;-22
2021/08/07 03:53:04;;;;;;;5.65;2.92;;;;;;;20.69;48.70;99437.44;5068340;28;20419;-22
2021/08/07 03:55:29;;;;;;;7.05;3.40;;;;;;;20.50;49.06;99434.78;5068606;28;20037;-22
2021/08/07 03:57:57;;;;;;;7.75;3.72;;;;;;;20.77;48.34;99432.09;5082582;28;20047;-22
2021/08/07 04:00:24;;;;;;;7.68;3.90;;;;;;;20.40;48.76;99425.75;5088228;28;20040;-21
2021/08/07 04:02:49;;;;;;;8.63;4.78;;;;;;;20.39;49.25;99443.13;5088663;28;20032;-22
2021/08/07 04:05:15;;;;;;;3.78;2.50;;;;;;;20.34;49.78;99458.63;5088551;28;20031;-22
2021/08/07 04:07:40;;;;;;;2.78;1.80;;;;;;;20.62;48.86;99432.41;5088287;28;20020;-22
2021/08/07 04:10:06;;;;;;;5.30;2.00;;;;;;;21.11;47.72;99468.81;5088378;28;20114;-22
2021/08/07 04:12:32;;;;;;;6.63;2.15;;;;;;;21.13;47.75;99471.22;5088752;28;20081;-22
2021/08/07 04:14:57;;;;;;;6.07;2.10;;;;;;;21.36;47.55;99472.09;5088228;28;20028;-21
2021/08/07 04:17:22;;;;;;;2.08;1.63;;;;;;;21.59;46.58;99464.81;5088476;28;20035;-22
2021/08/07 04:19:48;;;;;;;2.92;1.80;;;;;;;21.75;46.66;99471.47;5088240;28;20028;-21
2021/08/07 04:22:13;;;;;;;4.57;2.85;;;;;;;21.83;46.17;99480.81;5088339;28;20032;-22
2021/08/07 04:24:39;;;;;;;5.63;3.00;;;;;;;21.45;47.38;99486.53;5088416;28;20035;-22
2021/08/07 04:27:04;;;;;;;5.57;2.97;;;;;;;21.65;46.67;99486.09;5088221;28;20458;-24
2021/08/07 04:29:30;;;;;;;4.55;2.30;;;;;;;21.76;46.65;99486.66;5088016;28;20028;-22
2021/08/07 04:31:55;;;;;;;6.35;3.08;;;;;;;21.75;46.71;99505.97;5088480;28;20062;-22
2021/08/07 04:34:20;;;;;;;4.00;2.03;;;;;;;21.79;46.33;99504.25;5087774;28;20043;-22
2021/08/07 04:36:46;;;;;;;5.97;1.85;;;;;;;22.13;45.87;99516.44;5088082;28;20028;-22
2021/08/07 04:39:11;;;;;;;3.15;2.00;;;;;;;22.20;45.45;99519.56;5088197;28;20028;-22
2021/08/07 04:41:38;;;;;;;6.32;2.10;;;;;;;22.02;45.99;99526.75;5087834;28;20032;-22
2021/08/07 04:44:04;;;;;;;4.90;2.13;;;;;;;21.84;45.86;99520.41;5087462;28;20432;-22
2021/08/07 04:46:30;;;;;;;3.25;1.63;;;;;;;21.90;45.65;99540.88;5087743;28;20376;-22
2021/08/07 04:48:55;;;;;;;6.57;3.17;;;;;;;22.07;46.13;99537.53;5087832;28;20031;-22
2021/08/07 04:51:21;;;;;;;7.50;4.00;;;;;;;22.37;45.04;99549.59;5087723;28;20411;-22
2021/08/07 04:53:46;;;;;;;7.88;4.15;;;;;;;22.55;44.84;99557.81;5087791;28;20035;-22
2021/08/07 04:56:12;;;;;;;6.35;2.97;;;;;;;22.50;44.97;99563.41;5087266;28;20024;-22
2021/08/07 04:58:37;;;;;;;6.57;3.15;;;;;;;22.24;44.87;99555.88;5087764;28;20476;-22
2021/08/07 05:01:02;;;;;;;9.10;3.80;;;;;;;22.21;45.51;99568.13;5087993;28;20973;-22
2021/08/07 05:03:28;;;;;;;3.22;2.17;;;;;;;22.37;44.84;99574.03;5087666;28;20473;-22
2021/08/07 05:05:53;;;;;;;4.75;2.65;;;;;;;22.52;44.55;99582.91;5087032;28;20028;-23
2021/08/07 05:08:19;;;;;;;5.10;2.38;;;;;;;22.56;44.84;99581.19;5087143;28;20016;-22
2021/08/07 05:10:44;;;;;;;6.05;3.03;;;;;;;22.73;44.64;99583.97;5087498;28;20384;-23
2021/08/07 05:13:10;;;;;;;4.07;2.00;;;;;;;22.82;43.41;99595.72;5087408;28;20039;-23
2021/08/07 05:15:35;;;;;;;6.43;2.40;;;;;;;22.64;43.58;99602.16;5087341;28;20028;-22
2021/08/07 05:18:03;;;;;;;6.88;2.72;;;;;;;22.51;43.51;99606.53;5089686;28;20028;-22
2021/08/07 05:20:29;;;;;;;5.35;1.98;;;;;;;22.50;43.38;99617.75;5097836;28;20028;-22
2021/08/07 05:22:54;;;;;;;6.13;2.80;;;;;;;22.48;44.10;99603.66;5104592;28;20036;-22
2021/08/07 05:25:20;;;;;;;4.53;1.80;;;;;;;22.54;43.65;99611.38;5107864;28;20036;-22
2021/08/07 05:27:45;;;;;;;6.30;2.28;;;;;;;22.84;42.67;99622.56;5107566;28;20066;-22
2021/08/07 05:30:11;;;;;;;5.00;1.70;;;;;;;22.50;42.89;99617.75;5107295;28;20043;-23
2021/08/07 05:32:36;;;;;;;4.47;2.25;;;;;;;22.64;43.48;99624.72;5107577;28;20019;-23
2021/08/07 05:35:02;;;;;;;3.03;1.45;;;;;;;22.72;43.24;99628.59;5107677;28;20035;-23
2021/08/07 05:37:28;;;;;;;8.25;1.90;;;;;;;22.99;42.75;99634.97;5107775;28;20031;-23
2021/08/07 05:39:53;;;;;;;4.88;2.00;;;;;;;23.13;43.08;99635.72;5107732;28;20035;-23
2021/08/07 05:42:19;;;;;;;3.35;1.80;;;;;;;23.49;42.77;99640.16;5107430;28;20023;-23
2021/08/07 05:44:44;;;;;;;5.47;1.65;;;;;;;23.18;42.01;99630.13;5107587;28;20028;-23
2021/08/07 05:47:10;;;;;;;4.78;1.85;;;;;;;23.27;42.48;99630.16;5107533;28;20031;-23
2021/08/07 05:49:35;;;;;;;3.58;1.90;;;;;;;23.54;42.10;99636.47;5107525;28;20032;-23
2021/08/07 05:52:01;;;;;;;3.25;1.80;;;;;;;23.75;41.88;99644.88;5107238;28;20031;-24
2021/08/07 05:54:26;;;;;;;4.35;1.90;;;;;;;24.02;42.09;99639.19;5107424;28;20039;-23
2021/08/07 05:56:51;;;;;;;4.13;1.90;;;;;;;24.21;41.54;99657.97;5107414;28;20059;-23
2021/08/07 05:59:17;;;;;;;3.45;1.65;;;;;;;24.62;41.13;99661.31;5107170;28;20039;-22
2021/08/07 06:01:42;;;;;;;4.55;2.10;;;;;;;24.37;40.57;99660.19;5107576;28;20038;-23
2021/08/07 06:04:08;;;;;;;3.55;1.70;;;;;;;24.23;40.54;99649.44;5107437;28;20039;-23
2021/08/07 06:06:33;;;;;;;3.22;1.95;;;;;;;24.20;41.06;99661.00;5107122;28;20038;-23
2021/08/07 06:08:59;;;;;;;5.15;2.00;;;;;;;24.29;40.63;99650.88;5107651;28;20556;-23
2021/08/07 06:11:24;;;;;;;3.40;1.80;;;;;;;24.18;40.61;99664.03;5107653;28;20113;-23
2021/08/07 06:13:50;;;;;;;5.32;2.05;;;;;;;24.18;41.09;99663.22;5107311;28;20047;-23
2021/08/07 06:16:15;;;;;;;4.63;1.83;;;;;;;24.32;41.47;99669.34;5106883;28;20044;-23
2021/08/07 06:18:40;;;;;;;4.05;2.10;;;;;;;24.51;40.31;99673.69;5110186;28;20019;-23
2021/08/07 06:21:06;;;;;;;3.80;1.88;;;;;;;24.46;40.37;99674.63;5110895;28;20054;-23
2021/08/07 06:23:31;;;;;;;2.65;1.67;;;;;;;24.34;40.67;99675.25;5110827;28;20043;-23
2021/08/07 06:25:57;;;;;;;2.00;1.48;;;;;;;24.57;40.48;99675.13;5110866;28;20407;-23
2021/08/07 06:28:22;;;;;;;3.92;2.10;;;;;;;24.70;40.55;99673.34;5110489;28;20023;-22
2021/08/07 06:30:48;;;;;;;3.53;1.80;;;;;;;24.94;39.45;99672.81;5110618;28;20093;-23
2021/08/07 06:33:13;;;;;;;4.53;2.13;;;;;;;25.16;39.09;99680.00;5110837;28;20521;-23
2021/08/07 06:35:39;;;;;;;4.05;1.90;;;;;;;25.38;39.38;99676.25;5110541;28;20031;-23
2021/08/07 06:38:05;;;;;;;3.60;2.00;;;;;;;25.55;39.00;99675.38;5110383;28;20028;-23
2021/08/07 06:40:30;;;;;;;3.13;1.90;;;;;;;25.46;38.87;99672.69;5110437;28;20035;-22
2021/08/07 06:42:56;;;;;;;4.35;1.60;;;;;;;25.70;39.19;99674.78;5110401;28;20027;-22
2021/08/07 06:45:21;;;;;;;5.13;1.63;;;;;;;26.04;38.40;99682.00;5111003;28;20027;-23
2021/08/07 06:47:47;;;;;;;3.65;1.65;;;;;;;25.88;38.00;99677.44;5110548;28;20744;-23
2021/08/07 06:50:12;;;;;;;4.03;1.85;;;;;;;26.02;37.29;99662.41;5109987;28;20031;-23
2021/08/07 06:52:38;;;;;;;3.35;1.63;;;;;;;26.46;37.38;99682.03;5110336;28;20032;-23
2021/08/07 06:55:04;;;;;;;5.53;1.90;;;;;;;26.42;36.92;99683.81;5110233;28;20030;-23
2021/08/07 06:57:29;;;;;;;4.07;1.77;;;;;;;26.27;36.44;99684.41;5091480;28;20100;-23
2021/08/07 06:59:55;;;;;;;5.75;1.73;;;;;;;25.98;37.26;99671.59;5109950;28;20031;-24
2021/08/07 07:02:20;;;;;;;3.97;1.50;;;;;;;26.39;37.55;99676.28;5109949;28;20047;-23
2021/08/07 07:04:46;;;;;;;3.20;1.63;;;;;;;26.25;37.13;99681.22;5109926;28;20546;-23
2021/08/07 07:07:11;;;;;;;3.30;1.48;;;;;;;26.67;36.48;99677.69;5110271;28;20024;-23
2021/08/07 07:09:37;;;;;;;3.95;2.38;;;;;;;26.98;35.42;99679.94;5109975;28;20019;-23
2021/08/07 07:12:03;;;;;;;7.35;1.80;;;;;;;26.99;35.28;99670.59;5109602;28;20422;-23
2021/08/07 07:14:28;;;;;;;4.70;1.73;;;;;;;26.99;35.82;99670.59;5110002;28;20051;-23
2021/08/07 07:16:54;;;;;;;5.45;2.08;;;;;;;27.05;35.43;99686.47;5109807;28;20039;-22
2021/08/07 07:19:20;;;;;;;4.05;1.80;;;;;;;27.14;34.41;99693.78;5110045;28;20031;-22
2021/08/07 07:21:45;;;;;;;4.28;1.80;;;;;;;26.92;34.85;99701.25;5109525;28;20040;-23
2021/08/07 07:24:11;;;;;;;4.18;1.92;;;;;;;26.86;35.63;99684.22;5109508;28;20024;-23
2021/08/07 07:26:36;;;;;;;5.38;2.50;;;;;;;26.88;34.70;99702.25;5109289;28;20457;-23
2021/08/07 07:29:02;;;;;;;5.60;2.10;;;;;;;27.13;34.83;99697.66;5109246;28;20031;-23
2021/08/07 07:31:27;;;;;;;4.90;2.80;;;;;;;27.40;33.35;99707.19;5109483;28;20055;-23
2021/08/07 07:33:53;;;;;;;7.05;2.65;;;;;;;27.45;33.37;99705.03;5109330;28;20027;-23
2021/08/07 07:36:19;;;;;;;5.68;2.50;;;;;;;27.41;33.17;99689.63;5109113;28;20028;-22
2021/08/07 07:38:44;;;;;;;9.05;3.10;;;;;;;27.55;33.38;99703.78;5109290;28;20106;-22
2021/08/07 07:41:10;;;;;;;6.85;3.30;;;;;;;27.62;32.68;99698.53;5109332;28;20154;-23
2021/08/07 07:43:36;;;;;;;5.18;2.88;;;;;;;27.74;32.35;99694.19;5109671;28;20084;-22
2021/08/07 07:46:02;;;;;;;4.95;2.72;;;;;;;27.99;31.96;99695.81;5109065;28;20023;-22
2021/08/07 07:48:27;;;;;;;5.28;2.92;;;;;;;27.98;31.65;99699.66;5109156;28;20027;-23
2021/08/07 07:50:53;;;;;;;5.40;2.88;;;;;;;27.86;32.70;99702.41;5109150;28;20186;-23
2021/08/07 07:53:18;;;;;;;3.97;2.47;;;;;;;28.32;32.17;99711.25;5109122;28;20027;-22
2021/08/07 07:55:44;;;;;;;4.40;2.25;;;;;;;28.02;32.26;99706.06;5090925;28;20039;-23
2021/08/07 07:58:09;;;;;;;6.85;2.25;;;;;;;28.50;31.31;99708.25;5108778;28;20939;-22
2021/08/07 08:00:35;;;;;;;4.75;2.22;;;;;;;28.59;33.11;99706.19;5109068;28;20035;-22
2021/08/07 08:03:00;;;;;;;5.35;2.78;;;;;;;28.56;30.66;99706.88;5108920;28;20391;-22
2021/08/07 08:05:26;;;;;;;4.45;3.00;;;;;;;28.43;31.27;99722.53;5109105;28;20411;-23
2021/08/07 08:07:51;;;;;;;5.00;2.30;;;;;;;28.69;31.48;99719.41;5108800;28;20031;-23
2021/08/07 08:10:17;;;;;;;3.13;2.20;;;;;;;28.75;30.65;99715.25;5108453;28;20043;-23
2021/08/07 08:12:44;;;;;;;4.13;2.42;;;;;;;28.93;30.97;99709.44;5108778;28;20054;-22
2021/08/07 08:15:10;;;;;;;4.78;2.92;;;;;;;28.68;30.24;99698.59;5108562;28;20035;-23
2021/08/07 08:17:36;;;;;;;6.30;2.30;;;;;;;29.04;30.84;99710.53;5108505;28;20483;-23
2021/08/07 08:20:03;;;;;;;3.75;2.30;;;;;;;29.14;30.05;99718.28;5108103;28;20085;-23
2021/08/07 08:22:28;;;;;;;5.53;2.38;;;;;;;29.50;29.93;99710.94;5108614;28;20066;-23
2021/08/07 08:24:53;;;;;;;3.80;2.35;;;;;;;29.39;30.80;99699.69;5108385;28;20483;-22
2021/08/07 08:27:19;;;;;;;5.78;2.40;;;;;;;29.37;29.24;99720.44;5108748;28;20027;-23
2021/08/07 08:29:45;;;;;;;4.57;1.98;;;;;;;29.63;28.85;99708.91;5108482;28;20486;-23
2021/08/07 08:32:12;;;;;;;4.70;2.50;;;;;;;29.27;30.25;99701.72;5108101;28;20074;-23
2021/08/07 08:34:37;;;;;;;6.75;2.00;;;;;;;30.01;28.86;99699.97;5108182;28;20085;-22
2021/08/07 08:37:03;;;;;;;3.38;1.80;;;;;;;29.64;29.51;99705.00;5108487;28;20035;-23
2021/08/07 08:39:28;;;;;;;4.20;2.30;;;;;;;29.36;29.45;99705.09;5107918;28;20032;-22
2021/08/07 08:41:54;;;;;;;6.65;1.77;;;;;;;29.73;28.24;99699.31;5108353;28;20027;-23
2021/08/07 08:44:19;;;;;;;2.28;1.67;;;;;;;29.41;29.83;99699.34;5073472;28;20035;-22
2021/08/07 08:46:45;;;;;;;3.72;1.52;;;;;;;29.93;29.18;99709.22;5108027;28;20171;-23
2021/08/07 08:49:13;;;;;;;3.97;2.00;;;;;;;30.40;27.12;99697.31;5089851;28;20036;-22
2021/08/07 08:51:39;;;;;;;4.65;1.80;;;;;;;30.02;27.31;99692.53;5073195;28;20030;-23
2021/08/07 08:54:04;;;;;;;4.47;1.70;;;;;;;29.86;28.13;99689.84;5089414;28;20411;-23
2021/08/07 08:56:34;;;;;;;4.70;1.60;;;;;;;30.01;27.73;99694.47;5072701;28;20039;-23
2021/08/07 08:59:01;;;;;;;3.55;2.85;;;;;;;29.83;26.91;99679.53;5090221;28;20032;-23
2021/08/07 09:01:28;;;;;;;3.78;1.60;;;;;;;29.92;27.06;99682.09;5089889;28;20051;-23
2021/08/07 09:03:54;;;;;;;7.32;3.28;;;;;;;29.97;27.55;99685.34;5107910;28;20035;-23
2021/08/07 09:06:19;;;;;;;5.50;1.40;;;;;;;29.83;27.65;99671.28;5107697;28;20035;-23
2021/08/07 09:09:17;;;;;;;3.92;2.10;;;;;;;29.65;27.18;99674.41;5107664;28;20380;-22
2021/08/07 09:11:53;;;;;;;7.03;2.20;;;;;;;30.12;26.66;99663.66;5051584;28;20040;-22
2021/08/07 09:14:26;;;;;;;6.50;1.88;;;;;;;30.70;26.36;99669.19;5108045;28;20027;-22
2021/08/07 09:16:58;;;;;;;6.72;2.47;;;;;;;30.70;24.59;99665.66;5107615;28;20027;-23
2021/08/07 09:19:47;;;;;;;8.57;1.85;;;;;;;30.70;26.21;99660.94;5107520;28;20035;-23
2021/08/07 09:22:20;;;;;;;5.45;1.75;;;;;;;31.01;26.48;99670.16;5098856;28;20047;-23
2021/08/07 09:25:07;;;;;;;5.63;1.90;;;;;;;30.82;25.54;99662.72;5107800;28;20117;-23
2021/08/07 09:27:39;;;;;;;3.58;2.00;;;;;;;31.02;25.30;99666.28;5107553;28;20522;-23
2021/08/07 09:30:13;;;;;;;6.95;1.90;;;;;;;31.08;26.07;99663.97;5107165;28;20498;-23
2021/08/07 09:32:57;;;;;;;4.75;1.80;;;;;;;31.13;25.76;99664.47;5107976;28;20024;-23
2021/08/07 09:35:34;;;;;;;7.35;2.15;;;;;;;30.87;24.70;99653.38;5107511;28;20486;-23
2021/08/07 09:38:02;;;;;;;5.77;1.90;;;;;;;30.73;26.09;99660.22;5107504;28;20028;-22
2021/08/07 09:40:42;;;;;;;4.00;1.70;;;;;;;30.85;26.06;99639.97;5107369;28;20067;-23
2021/08/07 09:43:08;;;;;;;7.75;1.85;;;;;;;31.21;24.50;99644.16;5107503;28;20028;-23
2021/08/07 09:45:33;;;;;;;3.40;1.52;;;;;;;30.94;23.55;99642.53;5107341;28;20050;-23
2021/08/07 09:48:13;;;;;;;4.90;2.30;;;;;;;31.26;24.42;99648.56;5107727;28;20403;-22
2021/08/07 09:50:38;;;;;;;3.72;1.45;;;;;;;31.14;23.77;99638.53;5107267;28;20035;-22
2021/08/07 09:53:05;;;;;;;3.65;1.70;;;;;;;31.67;23.65;99629.53;5111295;28;20076;-23
2021/08/07 09:55:30;;;;;;;2.75;1.60;;;;;;;32.07;23.13;99635.59;5111326;28;20066;-23
2021/08/07 09:58:07;;;;;;;2.75;1.80;;;;;;;32.23;23.38;99638.97;5110833;28;20104;-23
2021/08/07 10:00:43;;;;;;;2.63;1.55;;;;;;;32.54;21.42;99654.31;5111053;28;20046;-23
2021/08/07 10:03:18;;;;;;;2.33;1.40;;;;;;;32.13;22.77;99639.63;5111505;28;20027;-22
2021/08/07 10:05:45;;;;;;;4.63;1.60;;;;;;;32.01;23.51;99644.19;5111170;28;20066;-23
2021/08/07 10:08:11;;;;;;;4.55;2.20;;;;;;;31.72;23.65;99643.00;5110864;28;20547;-23
2021/08/07 10:10:36;;;;;;;5.35;2.10;;;;;;;32.08;23.56;99638.00;5110895;28;20028;-23
2021/08/07 10:13:02;;;;;;;4.70;1.88;;;;;;;32.35;23.63;99652.50;5111460;28;20089;-23
2021/08/07 10:15:27;;;;;;;11.23;2.85;;;;;;;31.95;24.74;99636.59;5110912;28;20039;-22
2021/08/07 10:17:54;;;;;;;5.10;2.00;;;;;;;31.88;24.14;99623.53;5092837;28;20448;-22
2021/08/07 10:20:20;;;;;;;9.82;2.13;;;;;;;31.83;24.13;99637.63;5092501;28;20471;-23
2021/08/07 10:22:45;;;;;;;13.60;2.15;;;;;;;32.48;24.47;99636.47;5092420;28;20031;-22
2021/08/07 10:25:11;;;;;;;3.97;1.92;;;;;;;32.43;23.04;99642.34;5076231;28;20044;-22
2021/08/07 10:27:37;;;;;;;3.53;2.00;;;;;;;32.49;23.60;99631.75;5075954;28;20054;-22
2021/08/07 10:30:03;;;;;;;4.15;2.00;;;;;;;32.73;23.26;99622.94;5110816;28;20046;-23
2021/08/07 10:32:28;;;;;;;5.93;2.00;;;;;;;33.48;22.95;99620.03;5110702;28;20036;-22
2021/08/07 10:34:54;;;;;;;4.05;2.00;;;;;;;33.59;21.67;99618.16;5092734;28;20024;-22
2021/08/07 10:37:20;;;;;;;3.65;2.15;;;;;;;32.93;22.19;99620.00;5110253;28;20028;-22
2021/08/07 10:39:45;;;;;;;6.85;2.25;;;;;;;32.91;21.66;99625.09;5110380;28;20036;-22
2021/08/07 10:42:12;;;;;;;3.08;1.75;;;;;;;32.97;21.75;99615.28;5110107;28;20063;-22
2021/08/07 10:44:38;;;;;;;4.55;1.92;;;;;;;32.92;22.20;99626.69;5092123;28;20787;-22
2021/08/07 10:47:03;;;;;;;4.22;2.42;;;;;;;33.54;21.77;99609.41;5092127;28;20039;-22
2021/08/07 10:49:38;;;;;;;4.00;2.05;;;;;;;34.14;20.94;99610.94;5110180;28;20411;-22
2021/08/07 10:52:22;;;;;;;2.63;1.85;;;;;;;34.46;20.08;99622.13;5110337;28;20452;-22
2021/08/07 10:54:52;;;;;;;2.75;2.03;;;;;;;33.74;20.37;99618.25;5110004;28;20063;-22
2021/08/07 10:57:47;;;;;;;4.78;2.00;;;;;;;34.11;22.73;99606.16;5091910;28;20090;-22
2021/08/07 11:00:15;;;;;;;4.35;2.10;;;;;;;33.90;20.68;99615.16;5087685;28;20043;-22
2021/08/07 11:02:41;;;;;;;3.88;2.20;;;;;;;33.73;20.54;99589.00;5109742;28;20036;-22
2021/08/07 11:05:07;;;;;;;7.32;2.35;;;;;;;33.99;21.03;99599.00;5109873;28;20517;-22
2021/08/07 11:07:32;;;;;;;4.05;2.15;;;;;;;34.20;20.86;99592.78;5091621;28;20471;-22
2021/08/07 11:10:12;;;;;;;4.32;2.25;;;;;;;34.88;19.79;99595.72;5091984;28;20092;-22
2021/08/07 11:12:40;;;;;;;5.43;2.05;;;;;;;34.73;19.50;99594.88;5109658;28;20036;-22
2021/08/07 11:15:08;;;;;;;6.05;2.20;;;;;;;35.35;18.02;99609.53;5109941;28;20094;-23
2021/08/07 11:17:35;;;;;;;2.38;1.90;;;;;;;35.02;17.95;99594.88;5109674;28;20036;-23
2021/08/07 11:20:07;;;;;;;4.65;1.95;;;;;;;35.36;19.94;99597.28;5109798;28;20027;-22
2021/08/07 11:22:36;;;;;;;3.88;1.73;;;;;;;34.66;17.72;99605.97;5110169;28;20027;-22
2021/08/07 11:25:03;;;;;;;4.07;1.70;;;;;;;35.07;19.29;99610.34;5109780;28;20100;-22
2021/08/07 11:27:52;;;;;;;;;;;;;;;35.35;18.75;99602.03;5110111;28;20035;-22
2021/08/07 11:30:17;;;;;;;2.40;1.65;;;;;;;34.87;19.71;99601.63;5096395;28;19912;-22
2021/08/07 11:33:06;;;;;;;2.65;1.60;;;;;;;34.73;19.92;99596.88;5109705;28;20034;-22
2021/08/07 11:35:38;;;;;;;3.80;1.60;;;;;;;35.03;19.74;99601.25;5094029;28;20506;-22